sensor_id;sensor_type;location;lat;lon;timestamp;pressure;altitude;pressure_sealevel;temperature;humidity
13612;BME280;6877;51.436;6.774;2022-08-04T00:00:38;100919.72;;;24.37;51.15
13612;BME280;6877;51.436;6.774;2022-08-04T00:03:23;100925.53;;;24.43;51.12
13612;BME280;6877;51.436;6.774;2022-08-04T00:11:23;100916.31;;;24.35;50.94
13612;BME280;6877;51.436;6.774;2022-08-04T00:14:01;100908.50;;;24.32;51.12
13612;BME280;6877;51.436;6.774;2022-08-04T00:16:35;100903.03;;;24.33;51.03
13612;BME280;6877;51.436;6.774;2022-08-04T00:19:06;100904.41;;;24.39;50.99
13612;BME280;6877;51.436;6.774;2022-08-04T00:21:46;100904.84;;;24.45;50.88
13612;BME280;6877;51.436;6.774;2022-08-04T00:24:19;100917.50;;;24.43;50.74
13612;BME280;6877;51.436;6.774;2022-08-04T00:26:53;100908.78;;;24.40;50.59
13612;BME280;6877;51.436;6.774;2022-08-04T00:29:26;100912.44;;;24.39;50.67
13612;BME280;6877;51.436;6.774;2022-08-04T00:31:58;100917.78;;;24.39;50.63
13612;BME280;6877;51.436;6.774;2022-08-04T00:34:30;100914.06;;;24.41;50.69
13612;BME280;6877;51.436;6.774;2022-08-04T00:37:04;100909.66;;;24.40;50.77
13612;BME280;6877;51.436;6.774;2022-08-04T00:39:36;100901.97;;;24.36;50.90
13612;BME280;6877;51.436;6.774;2022-08-04T00:45:26;100902.31;;;24.31;50.85
13612;BME280;6877;51.436;6.774;2022-08-04T01:18:21;100873.19;;;24.15;50.92
13612;BME280;6877;51.436;6.774;2022-08-04T01:26:42;100863.56;;;24.13;51.18
13612;BME280;6877;51.436;6.774;2022-08-04T01:29:14;100848.59;;;24.10;51.03
13612;BME280;6877;51.436;6.774;2022-08-04T01:31:58;100858.31;;;24.11;51.24
13612;BME280;6877;51.436;6.774;2022-08-04T01:37:53;100842.50;;;24.08;51.11
13612;BME280;6877;51.436;6.774;2022-08-04T01:40:21;100854.16;;;24.07;51.14
13612;BME280;6877;51.436;6.774;2022-08-04T01:42:54;100843.69;;;24.04;51.16
13612;BME280;6877;51.436;6.774;2022-08-04T01:45:26;100840.28;;;24.02;51.25
13612;BME280;6877;51.436;6.774;2022-08-04T01:48:01;100850.13;;;24.01;51.25
13612;BME280;6877;51.436;6.774;2022-08-04T01:50:34;100842.84;;;24.03;51.44
13612;BME280;6877;51.436;6.774;2022-08-04T01:53:06;100846.59;;;24.01;51.40
13612;BME280;6877;51.436;6.774;2022-08-04T01:55:38;100852.28;;;23.96;51.40
13612;BME280;6877;51.436;6.774;2022-08-04T01:58:11;100848.25;;;23.91;51.54
13612;BME280;6877;51.436;6.774;2022-08-04T02:00:54;100847.72;;;23.86;51.82
13612;BME280;6877;51.436;6.774;2022-08-04T02:03:31;100838.00;;;23.85;51.86
13612;BME280;6877;51.436;6.774;2022-08-04T02:11:33;100835.84;;;23.77;52.03
13612;BME280;6877;51.436;6.774;2022-08-04T02:16:51;100830.72;;;23.87;51.95
13612;BME280;6877;51.436;6.774;2022-08-04T02:19:35;100830.94;;;23.84;51.68
13612;BME280;6877;51.436;6.774;2022-08-04T02:22:17;100827.31;;;23.85;52.18
13612;BME280;6877;51.436;6.774;2022-08-04T02:24:57;100825.59;;;23.84;52.05
13612;BME280;6877;51.436;6.774;2022-08-04T02:27:51;100834.34;;;23.86;52.14
13612;BME280;6877;51.436;6.774;2022-08-04T02:30:30;100824.72;;;23.83;52.15
13612;BME280;6877;51.436;6.774;2022-08-04T02:33:06;100820.56;;;23.79;52.00
13612;BME280;6877;51.436;6.774;2022-08-04T02:35:40;100823.25;;;23.79;52.49
13612;BME280;6877;51.436;6.774;2022-08-04T02:39:18;100811.94;;;23.75;52.05
13612;BME280;6877;51.436;6.774;2022-08-04T02:41:19;100818.34;;;23.60;52.45
13612;BME280;6877;51.436;6.774;2022-08-04T02:43:55;100814.88;;;23.47;52.87
13612;BME280;6877;51.436;6.774;2022-08-04T02:46:35;100811.03;;;23.38;53.08
13612;BME280;6877;51.436;6.774;2022-08-04T02:49:11;100816.06;;;23.30;53.40
13612;BME280;6877;51.436;6.774;2022-08-04T02:51:44;100813.94;;;23.22;53.55
13612;BME280;6877;51.436;6.774;2022-08-04T02:54:20;100814.56;;;23.13;53.89
13612;BME280;6877;51.436;6.774;2022-08-04T02:56:54;100813.50;;;23.03;53.96
13612;BME280;6877;51.436;6.774;2022-08-04T02:59:29;100808.81;;;22.94;54.31
13612;BME280;6877;51.436;6.774;2022-08-04T03:02:08;100811.13;;;22.85;54.79
13612;BME280;6877;51.436;6.774;2022-08-04T03:04:51;100806.22;;;22.79;54.93
13612;BME280;6877;51.436;6.774;2022-08-04T03:15:34;100804.25;;;22.43;56.09
13612;BME280;6877;51.436;6.774;2022-08-04T03:32:11;100802.47;;;22.02;58.00
13612;BME280;6877;51.436;6.774;2022-08-04T03:49:09;100811.72;;;21.96;58.66
13612;BME280;6877;51.436;6.774;2022-08-04T04:00:23;100794.06;;;21.81;59.13
13612;BME280;6877;51.436;6.774;2022-08-04T04:25:34;100791.47;;;21.24;60.33
13612;BME280;6877;51.436;6.774;2022-08-04T04:39:31;100807.47;;;21.38;60.74
13612;BME280;6877;51.436;6.774;2022-08-04T04:45:37;100801.78;;;21.44;60.80
13612;BME280;6877;51.436;6.774;2022-08-04T04:53:57;100797.56;;;21.55;60.42
13612;BME280;6877;51.436;6.774;2022-08-04T04:59:02;100797.94;;;21.63;60.22
13612;BME280;6877;51.436;6.774;2022-08-04T05:01:42;100800.94;;;21.71;60.17
13612;BME280;6877;51.436;6.774;2022-08-04T05:04:42;100805.28;;;21.86;60.02
13612;BME280;6877;51.436;6.774;2022-08-04T05:08:02;100811.53;;;21.99;59.37
13612;BME280;6877;51.436;6.774;2022-08-04T05:13:45;100802.94;;;22.09;59.36
13612;BME280;6877;51.436;6.774;2022-08-04T05:16:36;100801.59;;;22.16;59.11
13612;BME280;6877;51.436;6.774;2022-08-04T05:19:29;100807.06;;;22.27;59.07
13612;BME280;6877;51.436;6.774;2022-08-04T05:22:11;100807.31;;;22.37;58.70
13612;BME280;6877;51.436;6.774;2022-08-04T05:24:46;100808.53;;;22.46;58.39
13612;BME280;6877;51.436;6.774;2022-08-04T05:27:45;100812.38;;;22.54;58.06
13612;BME280;6877;51.436;6.774;2022-08-04T05:30:16;100810.03;;;22.62;57.79
13612;BME280;6877;51.436;6.774;2022-08-04T05:32:57;100812.41;;;22.67;57.74
13612;BME280;6877;51.436;6.774;2022-08-04T05:35:36;100811.44;;;22.68;57.85
13612;BME280;6877;51.436;6.774;2022-08-04T05:38:14;100805.34;;;22.66;57.94
13612;BME280;6877;51.436;6.774;2022-08-04T05:40:48;100810.88;;;22.63;58.34
13612;BME280;6877;51.436;6.774;2022-08-04T05:43:21;100817.19;;;22.62;58.65
13612;BME280;6877;51.436;6.774;2022-08-04T05:45:54;100810.03;;;22.62;58.80
13612;BME280;6877;51.436;6.774;2022-08-04T05:48:28;100809.19;;;22.62;58.87
13612;BME280;6877;51.436;6.774;2022-08-04T05:51:03;100818.16;;;22.61;58.67
13612;BME280;6877;51.436;6.774;2022-08-04T05:53:36;100809.63;;;22.68;58.66
13612;BME280;6877;51.436;6.774;2022-08-04T05:56:11;100810.03;;;22.75;58.13
13612;BME280;6877;51.436;6.774;2022-08-04T05:58:39;100805.69;;;22.74;58.48
13612;BME280;6877;51.436;6.774;2022-08-04T06:01:12;100806.44;;;22.76;58.48
13612;BME280;6877;51.436;6.774;2022-08-04T06:03:47;100807.81;;;22.82;57.88
13612;BME280;6877;51.436;6.774;2022-08-04T06:06:21;100799.59;;;22.85;57.90
13612;BME280;6877;51.436;6.774;2022-08-04T06:08:53;100806.16;;;22.94;57.32
13612;BME280;6877;51.436;6.774;2022-08-04T06:11:26;100801.16;;;23.02;56.88
13612;BME280;6877;51.436;6.774;2022-08-04T06:14:02;100803.38;;;23.08;56.57
13612;BME280;6877;51.436;6.774;2022-08-04T06:16:38;100804.75;;;23.13;56.69
13612;BME280;6877;51.436;6.774;2022-08-04T06:19:08;100803.03;;;23.12;56.54
13612;BME280;6877;51.436;6.774;2022-08-04T06:21:38;100800.59;;;23.09;56.52
13612;BME280;6877;51.436;6.774;2022-08-04T06:24:12;100801.56;;;23.08;56.71
13612;BME280;6877;51.436;6.774;2022-08-04T06:26:47;100793.44;;;23.10;56.91
13612;BME280;6877;51.436;6.774;2022-08-04T06:29:20;100800.91;;;23.18;56.61
13612;BME280;6877;51.436;6.774;2022-08-04T06:32:20;100800.69;;;23.33;56.27
13612;BME280;6877;51.436;6.774;2022-08-04T06:35:00;100794.03;;;23.52;55.40
13612;BME280;6877;51.436;6.774;2022-08-04T06:37:36;100795.78;;;23.64;55.29
13612;BME280;6877;51.436;6.774;2022-08-04T06:40:09;100792.25;;;23.76;54.75
13612;BME280;6877;51.436;6.774;2022-08-04T06:42:41;100804.63;;;23.90;54.54
13612;BME280;6877;51.436;6.774;2022-08-04T06:45:09;100805.19;;;24.07;53.93
13612;BME280;6877;51.436;6.774;2022-08-04T06:47:37;100795.75;;;24.14;53.80
13612;BME280;6877;51.436;6.774;2022-08-04T06:50:13;100796.88;;;24.22;53.43
13612;BME280;6877;51.436;6.774;2022-08-04T06:52:46;100795.97;;;24.35;53.15
13612;BME280;6877;51.436;6.774;2022-08-04T06:55:18;100797.28;;;24.53;52.25
13612;BME280;6877;51.436;6.774;2022-08-04T06:57:49;100790.47;;;24.71;51.74
13612;BME280;6877;51.436;6.774;2022-08-04T07:00:22;100786.84;;;24.84;51.37
13612;BME280;6877;51.436;6.774;2022-08-04T07:02:54;100786.03;;;24.94;51.17
13612;BME280;6877;51.436;6.774;2022-08-04T07:05:27;100790.44;;;25.07;50.67
13612;BME280;6877;51.436;6.774;2022-08-04T07:07:59;100797.78;;;25.16;50.15
13612;BME280;6877;51.436;6.774;2022-08-04T07:10:31;100790.69;;;25.26;49.75
13612;BME280;6877;51.436;6.774;2022-08-04T07:13:03;100792.03;;;25.32;49.73
13612;BME280;6877;51.436;6.774;2022-08-04T07:15:35;100783.00;;;25.44;49.42
13612;BME280;6877;51.436;6.774;2022-08-04T07:18:09;100789.81;;;25.59;48.99
13612;BME280;6877;51.436;6.774;2022-08-04T07:20:39;100789.06;;;25.69;48.67
13612;BME280;6877;51.436;6.774;2022-08-04T07:23:13;100787.84;;;25.84;48.11
13612;BME280;6877;51.436;6.774;2022-08-04T07:25:54;100788.75;;;26.05;47.44
13612;BME280;6877;51.436;6.774;2022-08-04T07:28:29;100786.22;;;26.25;46.57
13612;BME280;6877;51.436;6.774;2022-08-04T07:31:01;100783.94;;;26.41;46.47
13612;BME280;6877;51.436;6.774;2022-08-04T07:33:33;100787.78;;;26.60;45.94
13612;BME280;6877;51.436;6.774;2022-08-04T07:36:05;100793.28;;;26.79;45.62
13612;BME280;6877;51.436;6.774;2022-08-04T07:38:38;100793.13;;;27.01;44.80
13612;BME280;6877;51.436;6.774;2022-08-04T07:41:10;100796.22;;;27.18;44.32
13612;BME280;6877;51.436;6.774;2022-08-04T07:43:37;100798.41;;;27.34;44.10
13612;BME280;6877;51.436;6.774;2022-08-04T07:46:09;100797.88;;;27.49;43.29
13612;BME280;6877;51.436;6.774;2022-08-04T07:48:41;100796.22;;;27.68;43.36
13612;BME280;6877;51.436;6.774;2022-08-04T07:51:13;100807.91;;;27.88;42.67
13612;BME280;6877;51.436;6.774;2022-08-04T07:53:46;100813.88;;;28.01;42.39
13612;BME280;6877;51.436;6.774;2022-08-04T07:56:18;100806.81;;;28.10;41.53
13612;BME280;6877;51.436;6.774;2022-08-04T07:58:49;100802.44;;;28.18;41.53
13612;BME280;6877;51.436;6.774;2022-08-04T08:01:24;100805.41;;;28.35;41.01
13612;BME280;6877;51.436;6.774;2022-08-04T08:03:57;100797.88;;;28.68;40.63
13612;BME280;6877;51.436;6.774;2022-08-04T08:06:29;100797.53;;;28.90;40.16
13612;BME280;6877;51.436;6.774;2022-08-04T08:09:06;100789.66;;;29.16;39.57
13612;BME280;6877;51.436;6.774;2022-08-04T08:11:39;100785.53;;;30.22;38.10
13612;BME280;6877;51.436;6.774;2022-08-04T08:14:11;100790.13;;;31.60;35.39
13612;BME280;6877;51.436;6.774;2022-08-04T08:16:44;100782.13;;;32.75;33.33
13612;BME280;6877;51.436;6.774;2022-08-04T08:19:15;100772.13;;;34.25;30.84
13612;BME280;6877;51.436;6.774;2022-08-04T08:21:47;100777.31;;;35.46;28.69
13612;BME280;6877;51.436;6.774;2022-08-04T08:24:19;100779.50;;;37.49;26.44
13612;BME280;6877;51.436;6.774;2022-08-04T08:26:51;100780.25;;;40.26;22.26
13612;BME280;6877;51.436;6.774;2022-08-04T08:29:23;100791.47;;;42.97;19.26
13612;BME280;6877;51.436;6.774;2022-08-04T08:31:56;100790.97;;;44.77;17.60
13612;BME280;6877;51.436;6.774;2022-08-04T08:34:28;100787.44;;;43.28;18.63
13612;BME280;6877;51.436;6.774;2022-08-04T08:48:06;100794.00;;;46.23;15.19
13612;BME280;6877;51.436;6.774;2022-08-04T08:56:24;100802.38;;;47.13;13.96
13612;BME280;6877;51.436;6.774;2022-08-04T08:59:24;100801.78;;;47.94;13.13
13612;BME280;6877;51.436;6.774;2022-08-04T09:07:52;100783.72;;;41.27;19.20
13612;BME280;6877;51.436;6.774;2022-08-04T09:14:14;100786.94;;;37.34;24.11
13612;BME280;6877;51.436;6.774;2022-08-04T09:16:48;100789.66;;;36.00;25.92
13612;BME280;6877;51.436;6.774;2022-08-04T09:19:33;100793.59;;;35.10;27.28
13612;BME280;6877;51.436;6.774;2022-08-04T09:22:12;100796.47;;;35.09;27.81
13612;BME280;6877;51.436;6.774;2022-08-04T09:24:59;100802.97;;;35.22;27.70
13612;BME280;6877;51.436;6.774;2022-08-04T09:30:30;100799.81;;;39.08;22.72
13612;BME280;6877;51.436;6.774;2022-08-04T09:33:27;100807.47;;;40.52;20.89
13612;BME280;6877;51.436;6.774;2022-08-04T09:36:26;100805.56;;;44.10;17.15
13612;BME280;6877;51.436;6.774;2022-08-04T09:39:25;100810.94;;;46.27;15.37
13612;BME280;6877;51.436;6.774;2022-08-04T09:42:14;100806.59;;;45.54;15.51
13612;BME280;6877;51.436;6.774;2022-08-04T09:58:32;100824.41;;;44.30;16.76
13612;BME280;6877;51.436;6.774;2022-08-04T10:01:24;100811.13;;;45.88;15.69
13612;BME280;6877;51.436;6.774;2022-08-04T10:04:01;100820.19;;;46.80;14.49
13612;BME280;6877;51.436;6.774;2022-08-04T10:06:41;100815.59;;;47.69;13.76
13612;BME280;6877;51.436;6.774;2022-08-04T10:12:27;100824.53;;;47.81;13.22
13612;BME280;6877;51.436;6.774;2022-08-04T10:15:20;100817.03;;;47.13;13.95
13612;BME280;6877;51.436;6.774;2022-08-04T10:20:50;100821.47;;;44.88;15.85
13612;BME280;6877;51.436;6.774;2022-08-04T10:28:42;100829.59;;;46.41;14.81
13612;BME280;6877;51.436;6.774;2022-08-04T10:31:15;100826.75;;;46.68;14.72
13612;BME280;6877;51.436;6.774;2022-08-04T10:34:13;100816.38;;;45.18;15.27
13612;BME280;6877;51.436;6.774;2022-08-04T10:39:38;100818.31;;;41.64;19.03
13612;BME280;6877;51.436;6.774;2022-08-04T10:42:24;100826.66;;;39.44;21.49
13612;BME280;6877;51.436;6.774;2022-08-04T10:45:17;100821.75;;;38.41;22.47
13612;BME280;6877;51.436;6.774;2022-08-04T10:47:58;100827.63;;;38.38;22.92
13612;BME280;6877;51.436;6.774;2022-08-04T10:50:34;100836.25;;;39.73;21.71
13612;BME280;6877;51.436;6.774;2022-08-04T10:53:12;100835.22;;;41.98;19.38
13612;BME280;6877;51.436;6.774;2022-08-04T10:55:48;100833.91;;;42.43;18.62
13612;BME280;6877;51.436;6.774;2022-08-04T10:58:25;100834.31;;;41.86;18.60
13612;BME280;6877;51.436;6.774;2022-08-04T11:01:01;100831.63;;;41.12;19.19
13612;BME280;6877;51.436;6.774;2022-08-04T11:03:48;100836.53;;;40.60;19.93
13612;BME280;6877;51.436;6.774;2022-08-04T11:06:22;100841.31;;;40.08;21.09
13612;BME280;6877;51.436;6.774;2022-08-04T11:08:54;100839.78;;;39.09;22.31
13612;BME280;6877;51.436;6.774;2022-08-04T11:11:35;100834.13;;;38.37;23.33
13612;BME280;6877;51.436;6.774;2022-08-04T11:14:10;100837.72;;;37.28;24.10
13612;BME280;6877;51.436;6.774;2022-08-04T11:16:40;100846.09;;;36.92;24.41
13612;BME280;6877;51.436;6.774;2022-08-04T11:22:03;100849.25;;;36.46;24.86
13612;BME280;6877;51.436;6.774;2022-08-04T11:24:43;100856.28;;;35.97;25.79
13612;BME280;6877;51.436;6.774;2022-08-04T11:27:42;100858.66;;;35.86;26.29
13612;BME280;6877;51.436;6.774;2022-08-04T11:30:08;100867.28;;;36.04;26.06
13612;BME280;6877;51.436;6.774;2022-08-04T11:33:04;100855.72;;;36.66;24.98
13612;BME280;6877;51.436;6.774;2022-08-04T11:35:54;100862.94;;;36.74;25.37
13612;BME280;6877;51.436;6.774;2022-08-04T11:39:17;100857.03;;;36.71;25.90
13612;BME280;6877;51.436;6.774;2022-08-04T11:42:00;100874.16;;;36.22;26.98
13612;BME280;6877;51.436;6.774;2022-08-04T11:50:31;100880.53;;;35.33;28.66
13612;BME280;6877;51.436;6.774;2022-08-04T11:53:06;100879.94;;;34.47;28.98
13612;BME280;6877;51.436;6.774;2022-08-04T11:55:38;100882.78;;;34.00;29.35
13612;BME280;6877;51.436;6.774;2022-08-04T11:58:06;100879.91;;;33.54;30.24
13612;BME280;6877;51.436;6.774;2022-08-04T12:00:44;100873.59;;;32.89;31.40
13612;BME280;6877;51.436;6.774;2022-08-04T12:06:31;100884.94;;;32.93;32.26
13612;BME280;6877;51.436;6.774;2022-08-04T12:09:55;100895.88;;;32.34;33.40
13612;BME280;6877;51.436;6.774;2022-08-04T12:13:05;100893.50;;;31.80;34.40
13612;BME280;6877;51.436;6.774;2022-08-04T12:15:48;100895.22;;;31.47;35.02
13612;BME280;6877;51.436;6.774;2022-08-04T12:18:33;100901.50;;;31.30;35.17
13612;BME280;6877;51.436;6.774;2022-08-04T12:23:53;100894.19;;;31.22;36.07
13612;BME280;6877;51.436;6.774;2022-08-04T12:26:37;100890.69;;;31.04;39.16
13612;BME280;6877;51.436;6.774;2022-08-04T12:29:10;100892.88;;;31.00;39.95
13612;BME280;6877;51.436;6.774;2022-08-04T12:31:51;100888.72;;;31.14;40.31
13612;BME280;6877;51.436;6.774;2022-08-04T12:34:37;100894.38;;;31.47;39.59
13612;BME280;6877;51.436;6.774;2022-08-04T12:37:12;100905.72;;;31.84;39.18
13612;BME280;6877;51.436;6.774;2022-08-04T12:39:51;100903.47;;;31.80;39.03
13612;BME280;6877;51.436;6.774;2022-08-04T12:45:32;100890.72;;;31.56;39.05
13612;BME280;6877;51.436;6.774;2022-08-04T12:48:05;100883.25;;;31.58;38.70
13612;BME280;6877;51.436;6.774;2022-08-04T12:50:48;100883.97;;;31.94;38.51
13612;BME280;6877;51.436;6.774;2022-08-04T12:53:36;100892.66;;;31.72;38.56
13612;BME280;6877;51.436;6.774;2022-08-04T12:56:10;100884.72;;;31.78;38.27
13612;BME280;6877;51.436;6.774;2022-08-04T12:58:46;100897.81;;;31.91;37.64
13612;BME280;6877;51.436;6.774;2022-08-04T13:01:21;100899.22;;;32.12;37.34
13612;BME280;6877;51.436;6.774;2022-08-04T13:04:02;100901.44;;;32.24;36.81
13612;BME280;6877;51.436;6.774;2022-08-04T13:06:36;100897.41;;;32.37;36.15
13612;BME280;6877;51.436;6.774;2022-08-04T13:09:17;100888.16;;;32.47;35.88
13612;BME280;6877;51.436;6.774;2022-08-04T13:11:54;100886.78;;;32.43;35.95
13612;BME280;6877;51.436;6.774;2022-08-04T13:14:23;100893.50;;;32.31;36.54
13612;BME280;6877;51.436;6.774;2022-08-04T13:20:27;100882.34;;;32.42;35.74
13612;BME280;6877;51.436;6.774;2022-08-04T13:25:45;100882.31;;;32.10;36.20
13612;BME280;6877;51.436;6.774;2022-08-04T13:28:24;100888.25;;;32.13;35.88
13612;BME280;6877;51.436;6.774;2022-08-04T13:31:05;100877.25;;;32.31;35.81
13612;BME280;6877;51.436;6.774;2022-08-04T13:33:40;100882.69;;;32.39;35.17
13612;BME280;6877;51.436;6.774;2022-08-04T13:36:13;100875.28;;;32.49;35.59
13612;BME280;6877;51.436;6.774;2022-08-04T13:39:08;100868.03;;;32.66;35.11
13612;BME280;6877;51.436;6.774;2022-08-04T13:41:43;100871.72;;;32.82;35.07
13612;BME280;6877;51.436;6.774;2022-08-04T13:44:11;100867.00;;;32.67;35.11
13612;BME280;6877;51.436;6.774;2022-08-04T13:46:51;100858.34;;;32.80;35.17
13612;BME280;6877;51.436;6.774;2022-08-04T13:49:18;100862.75;;;32.57;35.17
13612;BME280;6877;51.436;6.774;2022-08-04T13:51:53;100850.22;;;32.72;35.13
13612;BME280;6877;51.436;6.774;2022-08-04T13:54:45;100861.22;;;32.87;34.29
13612;BME280;6877;51.436;6.774;2022-08-04T13:57:19;100866.09;;;32.91;34.38
13612;BME280;6877;51.436;6.774;2022-08-04T13:59:55;100870.88;;;32.97;34.23
13612;BME280;6877;51.436;6.774;2022-08-04T14:05:16;100871.19;;;32.94;33.78
13612;BME280;6877;51.436;6.774;2022-08-04T14:07:53;100870.19;;;32.87;33.64
13612;BME280;6877;51.436;6.774;2022-08-04T14:10:26;100870.16;;;32.30;34.20
13612;BME280;6877;51.436;6.774;2022-08-04T14:12:57;100879.13;;;31.80;35.08
13612;BME280;6877;51.436;6.774;2022-08-04T14:15:38;100876.63;;;31.52;36.18
13612;BME280;6877;51.436;6.774;2022-08-04T14:18:26;100875.16;;;31.32;37.48
13612;BME280;6877;51.436;6.774;2022-08-04T14:23:45;100880.66;;;31.40;37.77
13612;BME280;6877;51.436;6.774;2022-08-04T14:28:56;100866.13;;;31.41;38.00
13612;BME280;6877;51.436;6.774;2022-08-04T14:31:32;100862.66;;;31.31;37.94
13612;BME280;6877;51.436;6.774;2022-08-04T14:34:03;100852.75;;;31.13;38.24
13612;BME280;6877;51.436;6.774;2022-08-04T14:36:42;100860.75;;;31.23;38.52
13612;BME280;6877;51.436;6.774;2022-08-04T14:39:09;100875.16;;;31.32;38.02
13612;BME280;6877;51.436;6.774;2022-08-04T14:41:51;100873.84;;;31.36;38.10
13612;BME280;6877;51.436;6.774;2022-08-04T14:44:23;100869.66;;;31.15;38.35
13612;BME280;6877;51.436;6.774;2022-08-04T14:46:55;100868.53;;;31.00;38.75
13612;BME280;6877;51.436;6.774;2022-08-04T14:49:32;100862.41;;;30.72;38.77
13612;BME280;6877;51.436;6.774;2022-08-04T14:52:03;100866.75;;;30.47;39.62
13612;BME280;6877;51.436;6.774;2022-08-04T14:54:35;100861.19;;;30.31;40.04
13612;BME280;6877;51.436;6.774;2022-08-04T14:57:07;100854.72;;;30.23;40.18
13612;BME280;6877;51.436;6.774;2022-08-04T14:59:47;100855.69;;;30.22;40.84
13612;BME280;6877;51.436;6.774;2022-08-04T15:02:19;100853.00;;;30.22;40.72
13612;BME280;6877;51.436;6.774;2022-08-04T15:04:55;100856.72;;;30.21;41.11
13612;BME280;6877;51.436;6.774;2022-08-04T15:07:29;100848.75;;;30.20;41.07
13612;BME280;6877;51.436;6.774;2022-08-04T15:10:02;100850.66;;;30.10;41.59
13612;BME280;6877;51.436;6.774;2022-08-04T15:12:34;100851.44;;;30.02;41.29
13612;BME280;6877;51.436;6.774;2022-08-04T15:15:09;100855.22;;;29.82;41.21
13612;BME280;6877;51.436;6.774;2022-08-04T15:17:36;100865.81;;;29.65;40.68
13612;BME280;6877;51.436;6.774;2022-08-04T15:20:09;100875.50;;;29.58;40.50
13612;BME280;6877;51.436;6.774;2022-08-04T15:22:41;100873.13;;;29.45;40.01
13612;BME280;6877;51.436;6.774;2022-08-04T15:25:13;100881.34;;;29.44;39.79
13612;BME280;6877;51.436;6.774;2022-08-04T15:27:40;100880.00;;;29.30;39.83
13612;BME280;6877;51.436;6.774;2022-08-04T15:30:12;100883.41;;;29.22;39.97
13612;BME280;6877;51.436;6.774;2022-08-04T15:32:52;100865.13;;;29.16;40.63
13612;BME280;6877;51.436;6.774;2022-08-04T15:35:26;100863.13;;;29.18;41.06
13612;BME280;6877;51.436;6.774;2022-08-04T15:38:21;100871.94;;;29.20;41.54
13612;BME280;6877;51.436;6.774;2022-08-04T15:41:05;100879.53;;;29.34;41.30
13612;BME280;6877;51.436;6.774;2022-08-04T15:49:24;100895.03;;;29.32;42.82
13612;BME280;6877;51.436;6.774;2022-08-04T15:52:00;100892.41;;;29.13;43.17
13612;BME280;6877;51.436;6.774;2022-08-04T15:54:35;100887.28;;;28.91;43.85
13612;BME280;6877;51.436;6.774;2022-08-04T15:57:05;100890.41;;;28.76;44.65
13612;BME280;6877;51.436;6.774;2022-08-04T16:00:00;100888.44;;;28.59;45.56
13612;BME280;6877;51.436;6.774;2022-08-04T16:08:11;100901.47;;;28.54;45.91
13612;BME280;6877;51.436;6.774;2022-08-04T16:10:44;100877.66;;;28.69;45.91
13612;BME280;6877;51.436;6.774;2022-08-04T16:13:22;100882.75;;;28.72;46.14
13612;BME280;6877;51.436;6.774;2022-08-04T16:15:56;100879.66;;;28.76;45.93
13612;BME280;6877;51.436;6.774;2022-08-04T16:21:17;100861.78;;;28.56;46.44
13612;BME280;6877;51.436;6.774;2022-08-04T16:24:20;100864.38;;;28.48;46.57
13612;BME280;6877;51.436;6.774;2022-08-04T16:26:59;100868.16;;;28.35;46.30
13612;BME280;6877;51.436;6.774;2022-08-04T16:29:47;100871.53;;;28.28;46.42
13612;BME280;6877;51.436;6.774;2022-08-04T16:32:25;100867.97;;;28.08;46.76
13612;BME280;6877;51.436;6.774;2022-08-04T16:35:25;100868.81;;;28.18;46.74
13612;BME280;6877;51.436;6.774;2022-08-04T16:38:14;100864.03;;;28.31;46.59
13612;BME280;6877;51.436;6.774;2022-08-04T16:40:53;100871.41;;;28.29;46.81
13612;BME280;6877;51.436;6.774;2022-08-04T16:43:30;100872.81;;;28.24;47.46
13612;BME280;6877;51.436;6.774;2022-08-04T16:46:03;100869.53;;;28.20;48.05
13612;BME280;6877;51.436;6.774;2022-08-04T16:48:35;100862.59;;;28.08;48.00
13612;BME280;6877;51.436;6.774;2022-08-04T16:51:09;100875.47;;;28.04;48.17
13612;BME280;6877;51.436;6.774;2022-08-04T16:53:42;100879.56;;;27.99;48.44
13612;BME280;6877;51.436;6.774;2022-08-04T16:56:16;100879.72;;;27.97;48.09
13612;BME280;6877;51.436;6.774;2022-08-04T16:58:45;100875.00;;;27.89;48.11
13612;BME280;6877;51.436;6.774;2022-08-04T17:01:14;100884.16;;;27.77;48.32
13612;BME280;6877;51.436;6.774;2022-08-04T17:03:50;100880.84;;;27.64;47.76
13612;BME280;6877;51.436;6.774;2022-08-04T17:06:22;100880.22;;;27.50;48.00
13612;BME280;6877;51.436;6.774;2022-08-04T17:09:03;100869.97;;;27.35;48.83
13612;BME280;6877;51.436;6.774;2022-08-04T17:11:35;100871.06;;;27.11;49.46
13612;BME280;6877;51.436;6.774;2022-08-04T17:14:07;100866.34;;;27.03;49.72
13612;BME280;6877;51.436;6.774;2022-08-04T17:16:39;100858.19;;;27.05;49.97
13612;BME280;6877;51.436;6.774;2022-08-04T17:19:11;100870.19;;;27.22;49.64
13612;BME280;6877;51.436;6.774;2022-08-04T17:21:43;100870.00;;;27.44;49.73
13612;BME280;6877;51.436;6.774;2022-08-04T17:24:15;100869.19;;;27.54;49.74
13612;BME280;6877;51.436;6.774;2022-08-04T17:26:48;100861.63;;;27.68;49.71
13612;BME280;6877;51.436;6.774;2022-08-04T17:29:23;100862.25;;;27.82;49.33
13612;BME280;6877;51.436;6.774;2022-08-04T17:31:55;100858.00;;;27.89;49.76
13612;BME280;6877;51.436;6.774;2022-08-04T17:34:26;100861.72;;;27.98;49.36
13612;BME280;6877;51.436;6.774;2022-08-04T17:37:01;100870.78;;;27.97;49.70
13612;BME280;6877;51.436;6.774;2022-08-04T17:39:28;100880.66;;;27.96;49.78
13612;BME280;6877;51.436;6.774;2022-08-04T17:41:59;100878.41;;;27.91;50.01
13612;BME280;6877;51.436;6.774;2022-08-04T17:44:35;100883.19;;;27.78;49.91
13612;BME280;6877;51.436;6.774;2022-08-04T17:47:15;100878.06;;;27.75;50.02
13612;BME280;6877;51.436;6.774;2022-08-04T17:49:48;100880.00;;;27.73;50.04
13612;BME280;6877;51.436;6.774;2022-08-04T17:52:19;100880.84;;;27.64;49.81
13612;BME280;6877;51.436;6.774;2022-08-04T17:54:58;100883.63;;;27.53;49.93
13612;BME280;6877;51.436;6.774;2022-08-04T17:57:27;100895.75;;;27.47;50.13
13612;BME280;6877;51.436;6.774;2022-08-04T17:59:55;100895.72;;;27.37;50.67
13612;BME280;6877;51.436;6.774;2022-08-04T18:02:29;100893.16;;;27.36;51.21
13612;BME280;6877;51.436;6.774;2022-08-04T18:05:02;100891.47;;;27.35;51.14